Crompond, NY (10517)

6:12 PM EDT on March 28, 2015 (GMT -0400)
Cortlandt Manor | | Change Station
CLOSE
Current Station
Personal Weather Station
Location: Cortlandt Manor, NY
Elevation: 456 ft
Nearby Weather Stations

Elev 456 ft 41.29 °N, 73.87 °W | Updated 3 minutes ago

Snow
Snow
30.6 °F
Feels Like 31 °F
N
2.7
Wind Variable Wind from NW

Today
High -- | Low -- °F
--% Chance of Precip.
Yesterday
High -- | Low -- °F
Precip. -- in
6:45 AM 7:15 PM
Waxing Gibbous, 66% visible
Pressure 29.91 in
Visibility 10.0 miles
Clouds Few 3000 ft
Overcast 6000 ft
Windchill 31 °F
Dew Point 25 °F
Humidity 78%
Rainfall 0.38 in
Snow Depth Not available.
UV 0 out of 12
Pollen 3.60 out of 12
Air Quality Not available.
Flu Activity Not available.
METAR KHPN 282156Z 35009G17KT 10SM FEW030 OVC060 00/M06 A2988 RMK AO2 SNE52 SLP126 P0000 T00001056

More Conditions Fewer Conditions

Pressure 29.91 in
Visibility 10.0 miles
Clouds Few 3000 ft
Overcast 6000 ft
Windchill 31 °F
Dew Point 25 °F
Humidity 78%
Rainfall 0.38 in
Snow Depth Not available.
UV 0 out of 12
Pollen 3.60 out of 12
Air Quality Not available.
Flu Activity Not available.
METAR KHPN 282156Z 35009G17KT 10SM FEW030 OVC060 00/M06 A2988 RMK AO2 SNE52 SLP126 P0000 T00001056

More Conditions Fewer Conditions

10-Day Weather Forecast

Almanac

Astronomy

Mar. 28, 2015 Rise Set
Actual Time
Civil Twilight
Nautical Twilight
Astronomical Twilight
Moon
Length of Visible Light
Length of Day
Tomorrow will be .
, % of the Moon is Illuminated

Today's Extremes

State Highs State Lows

Community

WunderPhotos

Upload Photos

1,809,099 photos uploaded!

WunderBlogs® & News

Nearby

Air Quality

  Air Quality AQ Index Pollutant
Not available.

Snow Depth

Station Depth Elevation

Earthquake Activity

City Distance Mag. Time & Date
Minimum magnitude displayed is 2.5.

Coastal Water Temperatures

Place Temperature

Stations

Nearby Weather Stations

Station Location Temp. Windchill Dew Point Humidity Wind Precip. Elev Updated Type